sensor_id;sensor_type;location;lat;lon;timestamp;P1;durP1;ratioP1;P2;durP2;ratioP2
50779;SDS011;36748;37.428;-121.972;2023-06-26T00:00:45;2.88;;;2.20;;
50779;SDS011;36748;37.428;-121.972;2023-06-26T00:03:13;2.70;;;1.80;;
50779;SDS011;36748;37.428;-121.972;2023-06-26T00:05:40;2.40;;;2.00;;
50779;SDS011;36748;37.428;-121.972;2023-06-26T00:08:07;2.60;;;1.90;;
50779;SDS011;36748;37.428;-121.972;2023-06-26T00:10:34;2.15;;;1.73;;
50779;SDS011;36748;37.428;-121.972;2023-06-26T00:13:00;2.67;;;1.80;;
50779;SDS011;36748;37.428;-121.972;2023-06-26T00:15:27;3.75;;;1.90;;
50779;SDS011;36748;37.428;-121.972;2023-06-26T00:17:57;2.35;;;1.77;;
50779;SDS011;36748;37.428;-121.972;2023-06-26T00:20:24;1.95;;;1.73;;
50779;SDS011;36748;37.428;-121.972;2023-06-26T00:22:50;2.35;;;1.80;;
50779;SDS011;36748;37.428;-121.972;2023-06-26T00:25:17;2.92;;;1.75;;
50779;SDS011;36748;37.428;-121.972;2023-06-26T00:27:43;2.22;;;1.70;;
50779;SDS011;36748;37.428;-121.972;2023-06-26T00:30:10;3.17;;;1.45;;
50779;SDS011;36748;37.428;-121.972;2023-06-26T00:32:36;3.88;;;1.67;;
50779;SDS011;36748;37.428;-121.972;2023-06-26T00:35:02;2.33;;;1.70;;
50779;SDS011;36748;37.428;-121.972;2023-06-26T00:37:29;2.38;;;1.70;;
50779;SDS011;36748;37.428;-121.972;2023-06-26T00:39:55;1.90;;;1.45;;
50779;SDS011;36748;37.428;-121.972;2023-06-26T00:42:21;1.58;;;1.48;;
50779;SDS011;36748;37.428;-121.972;2023-06-26T00:44:47;1.92;;;1.50;;
50779;SDS011;36748;37.428;-121.972;2023-06-26T00:47:14;1.58;;;1.38;;
50779;SDS011;36748;37.428;-121.972;2023-06-26T00:49:46;1.60;;;1.50;;
50779;SDS011;36748;37.428;-121.972;2023-06-26T00:52:13;1.77;;;1.45;;
50779;SDS011;36748;37.428;-121.972;2023-06-26T00:54:39;3.22;;;1.65;;
50779;SDS011;36748;37.428;-121.972;2023-06-26T00:57:05;3.47;;;1.58;;
50779;SDS011;36748;37.428;-121.972;2023-06-26T00:59:32;4.00;;;1.70;;
50779;SDS011;36748;37.428;-121.972;2023-06-26T01:01:58;1.92;;;1.42;;
50779;SDS011;36748;37.428;-121.972;2023-06-26T01:04:24;2.03;;;1.33;;
50779;SDS011;36748;37.428;-121.972;2023-06-26T01:06:52;2.45;;;1.63;;
50779;SDS011;36748;37.428;-121.972;2023-06-26T01:09:19;1.75;;;1.55;;
50779;SDS011;36748;37.428;-121.972;2023-06-26T01:11:46;2.95;;;1.30;;
50779;SDS011;36748;37.428;-121.972;2023-06-26T01:14:12;1.77;;;1.20;;
50779;SDS011;36748;37.428;-121.972;2023-06-26T01:16:39;1.85;;;1.23;;
50779;SDS011;36748;37.428;-121.972;2023-06-26T01:19:09;2.78;;;1.33;;
50779;SDS011;36748;37.428;-121.972;2023-06-26T01:21:37;1.45;;;1.15;;
50779;SDS011;36748;37.428;-121.972;2023-06-26T01:24:09;1.23;;;1.00;;
50779;SDS011;36748;37.428;-121.972;2023-06-26T01:26:48;2.65;;;1.40;;
50779;SDS011;36748;37.428;-121.972;2023-06-26T01:29:16;1.85;;;1.13;;
50779;SDS011;36748;37.428;-121.972;2023-06-26T01:31:44;1.35;;;1.10;;
50779;SDS011;36748;37.428;-121.972;2023-06-26T01:34:13;2.10;;;1.42;;
50779;SDS011;36748;37.428;-121.972;2023-06-26T01:36:44;1.80;;;1.48;;
50779;SDS011;36748;37.428;-121.972;2023-06-26T01:39:14;1.17;;;1.08;;
50779;SDS011;36748;37.428;-121.972;2023-06-26T01:41:41;1.85;;;1.17;;
50779;SDS011;36748;37.428;-121.972;2023-06-26T01:47:03;1.30;;;0.98;;
50779;SDS011;36748;37.428;-121.972;2023-06-26T01:49:43;1.55;;;1.17;;
50779;SDS011;36748;37.428;-121.972;2023-06-26T01:55:12;2.95;;;1.10;;
50779;SDS011;36748;37.428;-121.972;2023-06-26T01:57:40;1.60;;;1.23;;
50779;SDS011;36748;37.428;-121.972;2023-06-26T02:00:07;3.92;;;1.17;;
50779;SDS011;36748;37.428;-121.972;2023-06-26T02:02:35;1.23;;;1.13;;
50779;SDS011;36748;37.428;-121.972;2023-06-26T02:05:02;1.33;;;1.00;;
50779;SDS011;36748;37.428;-121.972;2023-06-26T02:07:28;1.20;;;1.05;;
50779;SDS011;36748;37.428;-121.972;2023-06-26T02:09:54;2.72;;;1.23;;
50779;SDS011;36748;37.428;-121.972;2023-06-26T02:12:20;2.40;;;1.10;;
50779;SDS011;36748;37.428;-121.972;2023-06-26T02:14:47;1.38;;;1.00;;
50779;SDS011;36748;37.428;-121.972;2023-06-26T02:17:13;2.65;;;0.80;;
50779;SDS011;36748;37.428;-121.972;2023-06-26T02:19:39;1.20;;;0.90;;
50779;SDS011;36748;37.428;-121.972;2023-06-26T02:22:15;1.30;;;0.95;;
50779;SDS011;36748;37.428;-121.972;2023-06-26T02:24:42;1.17;;;1.05;;
50779;SDS011;36748;37.428;-121.972;2023-06-26T02:27:09;1.35;;;1.00;;
50779;SDS011;36748;37.428;-121.972;2023-06-26T02:29:36;2.13;;;1.25;;
50779;SDS011;36748;37.428;-121.972;2023-06-26T02:32:02;1.65;;;1.02;;
50779;SDS011;36748;37.428;-121.972;2023-06-26T02:34:29;2.55;;;1.23;;
50779;SDS011;36748;37.428;-121.972;2023-06-26T02:36:55;1.67;;;0.88;;
50779;SDS011;36748;37.428;-121.972;2023-06-26T02:39:23;1.52;;;1.00;;
50779;SDS011;36748;37.428;-121.972;2023-06-26T02:41:50;1.10;;;1.00;;
50779;SDS011;36748;37.428;-121.972;2023-06-26T02:44:16;1.60;;;0.93;;
50779;SDS011;36748;37.428;-121.972;2023-06-26T02:46:42;1.95;;;1.00;;
50779;SDS011;36748;37.428;-121.972;2023-06-26T02:49:08;0.93;;;0.80;;
50779;SDS011;36748;37.428;-121.972;2023-06-26T02:51:35;1.77;;;0.98;;
50779;SDS011;36748;37.428;-121.972;2023-06-26T02:54:01;1.40;;;0.80;;
50779;SDS011;36748;37.428;-121.972;2023-06-26T02:56:28;3.28;;;1.00;;
50779;SDS011;36748;37.428;-121.972;2023-06-26T02:58:54;2.08;;;1.00;;
50779;SDS011;36748;37.428;-121.972;2023-06-26T03:01:21;4.93;;;1.20;;
50779;SDS011;36748;37.428;-121.972;2023-06-26T03:03:47;3.00;;;1.10;;
50779;SDS011;36748;37.428;-121.972;2023-06-26T03:06:14;4.03;;;1.20;;
50779;SDS011;36748;37.428;-121.972;2023-06-26T03:08:40;3.05;;;1.30;;
50779;SDS011;36748;37.428;-121.972;2023-06-26T03:11:07;0.77;;;0.77;;
50779;SDS011;36748;37.428;-121.972;2023-06-26T03:13:34;3.78;;;1.30;;
50779;SDS011;36748;37.428;-121.972;2023-06-26T03:16:01;3.13;;;1.27;;
50779;SDS011;36748;37.428;-121.972;2023-06-26T03:18:28;1.67;;;1.25;;
50779;SDS011;36748;37.428;-121.972;2023-06-26T03:20:55;4.88;;;1.05;;
50779;SDS011;36748;37.428;-121.972;2023-06-26T03:23:21;1.63;;;0.98;;
50779;SDS011;36748;37.428;-121.972;2023-06-26T03:25:48;2.17;;;1.10;;
50779;SDS011;36748;37.428;-121.972;2023-06-26T03:28:15;2.85;;;1.08;;
50779;SDS011;36748;37.428;-121.972;2023-06-26T03:30:41;1.42;;;0.90;;
50779;SDS011;36748;37.428;-121.972;2023-06-26T03:33:07;2.17;;;0.93;;
50779;SDS011;36748;37.428;-121.972;2023-06-26T03:35:34;1.20;;;1.02;;
50779;SDS011;36748;37.428;-121.972;2023-06-26T03:38:00;7.72;;;1.20;;
50779;SDS011;36748;37.428;-121.972;2023-06-26T03:40:27;4.93;;;0.93;;
50779;SDS011;36748;37.428;-121.972;2023-06-26T03:42:53;2.38;;;1.38;;
50779;SDS011;36748;37.428;-121.972;2023-06-26T03:45:19;1.55;;;0.80;;
50779;SDS011;36748;37.428;-121.972;2023-06-26T03:47:45;4.10;;;0.98;;
50779;SDS011;36748;37.428;-121.972;2023-06-26T03:50:18;4.13;;;1.00;;
50779;SDS011;36748;37.428;-121.972;2023-06-26T03:52:45;4.10;;;1.00;;
50779;SDS011;36748;37.428;-121.972;2023-06-26T03:55:11;3.80;;;1.08;;
50779;SDS011;36748;37.428;-121.972;2023-06-26T03:57:37;0.60;;;0.60;;
50779;SDS011;36748;37.428;-121.972;2023-06-26T04:00:04;3.70;;;1.33;;
50779;SDS011;36748;37.428;-121.972;2023-06-26T04:02:34;5.28;;;1.25;;
50779;SDS011;36748;37.428;-121.972;2023-06-26T04:05:00;6.10;;;1.00;;
50779;SDS011;36748;37.428;-121.972;2023-06-26T04:07:29;7.40;;;1.50;;
50779;SDS011;36748;37.428;-121.972;2023-06-26T04:09:56;5.45;;;1.70;;
50779;SDS011;36748;37.428;-121.972;2023-06-26T04:12:23;4.70;;;1.10;;
50779;SDS011;36748;37.428;-121.972;2023-06-26T04:14:49;6.93;;;1.20;;
50779;SDS011;36748;37.428;-121.972;2023-06-26T04:17:15;4.72;;;1.35;;
50779;SDS011;36748;37.428;-121.972;2023-06-26T04:19:41;3.70;;;1.52;;
50779;SDS011;36748;37.428;-121.972;2023-06-26T04:22:08;6.05;;;1.23;;
50779;SDS011;36748;37.428;-121.972;2023-06-26T04:24:34;3.65;;;1.27;;
50779;SDS011;36748;37.428;-121.972;2023-06-26T04:27:00;7.18;;;1.35;;
50779;SDS011;36748;37.428;-121.972;2023-06-26T04:29:26;3.92;;;1.05;;
50779;SDS011;36748;37.428;-121.972;2023-06-26T04:31:53;2.15;;;0.98;;
50779;SDS011;36748;37.428;-121.972;2023-06-26T04:34:26;4.50;;;0.90;;
50779;SDS011;36748;37.428;-121.972;2023-06-26T04:36:53;3.05;;;1.00;;
50779;SDS011;36748;37.428;-121.972;2023-06-26T04:39:20;3.47;;;1.20;;
50779;SDS011;36748;37.428;-121.972;2023-06-26T04:41:46;2.92;;;1.10;;
50779;SDS011;36748;37.428;-121.972;2023-06-26T04:44:12;3.95;;;1.27;;
50779;SDS011;36748;37.428;-121.972;2023-06-26T04:46:38;3.28;;;1.15;;
50779;SDS011;36748;37.428;-121.972;2023-06-26T04:49:08;6.43;;;1.48;;
50779;SDS011;36748;37.428;-121.972;2023-06-26T04:51:34;6.63;;;1.60;;
50779;SDS011;36748;37.428;-121.972;2023-06-26T04:54:06;2.70;;;0.80;;
50779;SDS011;36748;37.428;-121.972;2023-06-26T04:56:33;4.47;;;0.90;;
50779;SDS011;36748;37.428;-121.972;2023-06-26T04:59:00;1.73;;;1.05;;
50779;SDS011;36748;37.428;-121.972;2023-06-26T05:01:27;2.97;;;1.13;;
50779;SDS011;36748;37.428;-121.972;2023-06-26T05:03:58;5.32;;;1.45;;
50779;SDS011;36748;37.428;-121.972;2023-06-26T05:06:24;4.55;;;1.38;;
50779;SDS011;36748;37.428;-121.972;2023-06-26T05:08:51;4.07;;;0.90;;
50779;SDS011;36748;37.428;-121.972;2023-06-26T05:11:17;1.50;;;1.10;;
50779;SDS011;36748;37.428;-121.972;2023-06-26T05:13:43;1.80;;;1.00;;
50779;SDS011;36748;37.428;-121.972;2023-06-26T05:16:09;2.70;;;0.75;;
50779;SDS011;36748;37.428;-121.972;2023-06-26T05:18:35;2.42;;;1.08;;
50779;SDS011;36748;37.428;-121.972;2023-06-26T05:21:02;2.13;;;1.00;;
50779;SDS011;36748;37.428;-121.972;2023-06-26T05:23:32;1.67;;;0.73;;
50779;SDS011;36748;37.428;-121.972;2023-06-26T05:26:02;15.00;;;1.42;;
50779;SDS011;36748;37.428;-121.972;2023-06-26T05:28:29;1.63;;;0.80;;
50779;SDS011;36748;37.428;-121.972;2023-06-26T05:30:59;2.85;;;0.80;;
50779;SDS011;36748;37.428;-121.972;2023-06-26T05:33:26;1.33;;;0.73;;
50779;SDS011;36748;37.428;-121.972;2023-06-26T05:35:52;3.53;;;1.08;;
50779;SDS011;36748;37.428;-121.972;2023-06-26T05:38:19;1.58;;;0.77;;
50779;SDS011;36748;37.428;-121.972;2023-06-26T05:40:46;1.33;;;0.80;;
50779;SDS011;36748;37.428;-121.972;2023-06-26T05:43:13;1.85;;;1.00;;
50779;SDS011;36748;37.428;-121.972;2023-06-26T05:45:40;1.83;;;0.90;;
50779;SDS011;36748;37.428;-121.972;2023-06-26T05:48:06;1.00;;;0.70;;
50779;SDS011;36748;37.428;-121.972;2023-06-26T05:50:32;2.05;;;0.93;;
50779;SDS011;36748;37.428;-121.972;2023-06-26T05:52:59;1.25;;;0.80;;
50779;SDS011;36748;37.428;-121.972;2023-06-26T05:55:28;1.67;;;0.70;;
50779;SDS011;36748;37.428;-121.972;2023-06-26T05:57:55;2.78;;;0.70;;
50779;SDS011;36748;37.428;-121.972;2023-06-26T06:00:23;1.95;;;0.90;;
50779;SDS011;36748;37.428;-121.972;2023-06-26T06:02:51;2.17;;;1.00;;
50779;SDS011;36748;37.428;-121.972;2023-06-26T06:05:20;2.88;;;0.85;;
50779;SDS011;36748;37.428;-121.972;2023-06-26T06:07:47;1.67;;;0.80;;
50779;SDS011;36748;37.428;-121.972;2023-06-26T06:10:13;3.00;;;0.77;;
50779;SDS011;36748;37.428;-121.972;2023-06-26T06:12:39;1.27;;;0.80;;
50779;SDS011;36748;37.428;-121.972;2023-06-26T06:15:06;0.98;;;0.55;;
50779;SDS011;36748;37.428;-121.972;2023-06-26T06:17:32;1.35;;;0.82;;
50779;SDS011;36748;37.428;-121.972;2023-06-26T06:19:58;1.75;;;0.93;;
50779;SDS011;36748;37.428;-121.972;2023-06-26T06:22:24;2.00;;;0.88;;
50779;SDS011;36748;37.428;-121.972;2023-06-26T06:24:51;1.23;;;0.90;;
50779;SDS011;36748;37.428;-121.972;2023-06-26T06:27:17;1.77;;;0.60;;
50779;SDS011;36748;37.428;-121.972;2023-06-26T06:29:43;0.95;;;0.70;;
50779;SDS011;36748;37.428;-121.972;2023-06-26T06:32:09;0.73;;;0.60;;
50779;SDS011;36748;37.428;-121.972;2023-06-26T06:34:36;1.52;;;0.70;;
50779;SDS011;36748;37.428;-121.972;2023-06-26T06:37:02;1.60;;;0.77;;
50779;SDS011;36748;37.428;-121.972;2023-06-26T06:39:29;2.50;;;0.90;;
50779;SDS011;36748;37.428;-121.972;2023-06-26T06:41:55;1.42;;;0.80;;
50779;SDS011;36748;37.428;-121.972;2023-06-26T06:44:21;0.80;;;0.80;;
50779;SDS011;36748;37.428;-121.972;2023-06-26T06:46:48;1.50;;;0.90;;
50779;SDS011;36748;37.428;-121.972;2023-06-26T06:49:14;0.77;;;0.77;;
50779;SDS011;36748;37.428;-121.972;2023-06-26T06:51:40;1.30;;;0.77;;
50779;SDS011;36748;37.428;-121.972;2023-06-26T06:54:06;1.27;;;0.77;;
50779;SDS011;36748;37.428;-121.972;2023-06-26T06:56:32;1.38;;;0.93;;
50779;SDS011;36748;37.428;-121.972;2023-06-26T06:58:59;2.20;;;0.95;;
50779;SDS011;36748;37.428;-121.972;2023-06-26T07:01:25;0.73;;;0.73;;
50779;SDS011;36748;37.428;-121.972;2023-06-26T07:03:51;1.77;;;0.65;;
50779;SDS011;36748;37.428;-121.972;2023-06-26T07:06:17;0.95;;;0.70;;
50779;SDS011;36748;37.428;-121.972;2023-06-26T07:08:43;2.10;;;0.88;;
50779;SDS011;36748;37.428;-121.972;2023-06-26T07:11:10;1.80;;;0.98;;
50779;SDS011;36748;37.428;-121.972;2023-06-26T07:13:36;1.17;;;0.80;;
50779;SDS011;36748;37.428;-121.972;2023-06-26T07:16:02;2.00;;;0.70;;
50779;SDS011;36748;37.428;-121.972;2023-06-26T07:18:29;0.80;;;0.52;;
50779;SDS011;36748;37.428;-121.972;2023-06-26T07:20:55;1.27;;;0.65;;
50779;SDS011;36748;37.428;-121.972;2023-06-26T07:23:21;1.55;;;0.75;;
50779;SDS011;36748;37.428;-121.972;2023-06-26T07:25:47;1.00;;;0.80;;
50779;SDS011;36748;37.428;-121.972;2023-06-26T07:28:13;1.13;;;0.70;;
50779;SDS011;36748;37.428;-121.972;2023-06-26T07:30:39;1.45;;;0.80;;
50779;SDS011;36748;37.428;-121.972;2023-06-26T07:33:06;1.90;;;0.82;;
50779;SDS011;36748;37.428;-121.972;2023-06-26T07:35:52;0.63;;;0.63;;
50779;SDS011;36748;37.428;-121.972;2023-06-26T07:38:18;1.65;;;0.60;;
50779;SDS011;36748;37.428;-121.972;2023-06-26T07:40:44;1.17;;;0.80;;
50779;SDS011;36748;37.428;-121.972;2023-06-26T07:43:10;1.13;;;0.80;;
50779;SDS011;36748;37.428;-121.972;2023-06-26T07:45:37;1.30;;;0.47;;
50779;SDS011;36748;37.428;-121.972;2023-06-26T07:48:03;1.77;;;0.70;;
50779;SDS011;36748;37.428;-121.972;2023-06-26T07:50:29;1.95;;;0.80;;
50779;SDS011;36748;37.428;-121.972;2023-06-26T07:52:55;1.70;;;0.85;;
50779;SDS011;36748;37.428;-121.972;2023-06-26T07:55:22;1.38;;;0.98;;
50779;SDS011;36748;37.428;-121.972;2023-06-26T07:57:48;1.02;;;0.73;;
50779;SDS011;36748;37.428;-121.972;2023-06-26T08:00:17;1.35;;;0.82;;
50779;SDS011;36748;37.428;-121.972;2023-06-26T08:02:43;2.33;;;0.82;;
50779;SDS011;36748;37.428;-121.972;2023-06-26T08:05:09;0.95;;;0.63;;
50779;SDS011;36748;37.428;-121.972;2023-06-26T08:07:36;2.47;;;0.75;;
50779;SDS011;36748;37.428;-121.972;2023-06-26T08:10:02;2.17;;;0.85;;
50779;SDS011;36748;37.428;-121.972;2023-06-26T08:12:28;1.23;;;0.55;;
50779;SDS011;36748;37.428;-121.972;2023-06-26T08:14:55;0.50;;;0.50;;
50779;SDS011;36748;37.428;-121.972;2023-06-26T08:17:21;0.60;;;0.50;;
50779;SDS011;36748;37.428;-121.972;2023-06-26T08:19:47;0.93;;;0.63;;
50779;SDS011;36748;37.428;-121.972;2023-06-26T08:22:13;1.45;;;0.70;;
50779;SDS011;36748;37.428;-121.972;2023-06-26T08:24:39;1.88;;;0.65;;
50779;SDS011;36748;37.428;-121.972;2023-06-26T08:27:06;1.98;;;0.68;;
50779;SDS011;36748;37.428;-121.972;2023-06-26T08:29:33;1.08;;;0.70;;
50779;SDS011;36748;37.428;-121.972;2023-06-26T08:31:59;1.30;;;1.00;;
50779;SDS011;36748;37.428;-121.972;2023-06-26T08:34:27;1.42;;;0.63;;
50779;SDS011;36748;37.428;-121.972;2023-06-26T08:36:53;0.60;;;0.57;;
50779;SDS011;36748;37.428;-121.972;2023-06-26T08:39:19;1.48;;;0.68;;
50779;SDS011;36748;37.428;-121.972;2023-06-26T08:41:46;0.98;;;0.60;;
50779;SDS011;36748;37.428;-121.972;2023-06-26T08:44:12;0.57;;;0.55;;
50779;SDS011;36748;37.428;-121.972;2023-06-26T08:46:38;0.60;;;0.60;;
50779;SDS011;36748;37.428;-121.972;2023-06-26T08:49:08;1.05;;;0.57;;
50779;SDS011;36748;37.428;-121.972;2023-06-26T08:52:42;2.10;;;0.73;;
50779;SDS011;36748;37.428;-121.972;2023-06-26T08:54:52;0.70;;;0.50;;
50779;SDS011;36748;37.428;-121.972;2023-06-26T08:57:23;1.42;;;0.93;;
50779;SDS011;36748;37.428;-121.972;2023-06-26T08:59:49;1.90;;;0.73;;
50779;SDS011;36748;37.428;-121.972;2023-06-26T09:02:16;0.60;;;0.57;;
50779;SDS011;36748;37.428;-121.972;2023-06-26T09:04:43;0.93;;;0.50;;
50779;SDS011;36748;37.428;-121.972;2023-06-26T09:07:09;2.03;;;0.60;;
50779;SDS011;36748;37.428;-121.972;2023-06-26T09:09:35;1.08;;;0.68;;
50779;SDS011;36748;37.428;-121.972;2023-06-26T09:12:02;0.45;;;0.45;;
50779;SDS011;36748;37.428;-121.972;2023-06-26T09:14:29;1.35;;;0.70;;
50779;SDS011;36748;37.428;-121.972;2023-06-26T09:16:55;0.82;;;0.60;;
50779;SDS011;36748;37.428;-121.972;2023-06-26T09:19:21;0.80;;;0.52;;
50779;SDS011;36748;37.428;-121.972;2023-06-26T09:21:49;1.20;;;0.60;;
50779;SDS011;36748;37.428;-121.972;2023-06-26T09:24:16;0.93;;;0.70;;
50779;SDS011;36748;37.428;-121.972;2023-06-26T09:26:43;0.68;;;0.60;;
50779;SDS011;36748;37.428;-121.972;2023-06-26T09:29:09;0.63;;;0.60;;
50779;SDS011;36748;37.428;-121.972;2023-06-26T09:31:39;1.00;;;0.68;;
50779;SDS011;36748;37.428;-121.972;2023-06-26T09:34:05;0.45;;;0.40;;
50779;SDS011;36748;37.428;-121.972;2023-06-26T09:36:32;0.70;;;0.55;;
50779;SDS011;36748;37.428;-121.972;2023-06-26T09:39:02;0.73;;;0.40;;
50779;SDS011;36748;37.428;-121.972;2023-06-26T09:41:36;1.40;;;0.70;;
50779;SDS011;36748;37.428;-121.972;2023-06-26T09:44:03;0.77;;;0.50;;
50779;SDS011;36748;37.428;-121.972;2023-06-26T09:46:30;0.60;;;0.50;;
50779;SDS011;36748;37.428;-121.972;2023-06-26T09:49:06;0.50;;;0.50;;
50779;SDS011;36748;37.428;-121.972;2023-06-26T09:51:34;1.20;;;0.70;;
50779;SDS011;36748;37.428;-121.972;2023-06-26T09:54:02;0.43;;;0.43;;
50779;SDS011;36748;37.428;-121.972;2023-06-26T09:56:29;1.10;;;0.65;;
50779;SDS011;36748;37.428;-121.972;2023-06-26T09:58:56;1.17;;;0.60;;
50779;SDS011;36748;37.428;-121.972;2023-06-26T10:01:23;0.57;;;0.57;;
50779;SDS011;36748;37.428;-121.972;2023-06-26T10:03:55;0.50;;;0.50;;
50779;SDS011;36748;37.428;-121.972;2023-06-26T10:06:27;0.77;;;0.60;;
50779;SDS011;36748;37.428;-121.972;2023-06-26T10:08:58;2.72;;;0.40;;
50779;SDS011;36748;37.428;-121.972;2023-06-26T10:11:28;0.68;;;0.60;;
50779;SDS011;36748;37.428;-121.972;2023-06-26T10:14:11;2.13;;;0.80;;
50779;SDS011;36748;37.428;-121.972;2023-06-26T10:16:37;1.13;;;0.80;;
50779;SDS011;36748;37.428;-121.972;2023-06-26T10:19:06;0.52;;;0.43;;
50779;SDS011;36748;37.428;-121.972;2023-06-26T10:21:34;0.63;;;0.63;;
50779;SDS011;36748;37.428;-121.972;2023-06-26T10:24:03;1.15;;;0.50;;
50779;SDS011;36748;37.428;-121.972;2023-06-26T10:26:31;0.93;;;0.52;;
50779;SDS011;36748;37.428;-121.972;2023-06-26T10:29:01;0.90;;;0.70;;
50779;SDS011;36748;37.428;-121.972;2023-06-26T10:31:28;0.50;;;0.50;;
50779;SDS011;36748;37.428;-121.972;2023-06-26T10:33:54;1.35;;;0.60;;
50779;SDS011;36748;37.428;-121.972;2023-06-26T10:36:27;0.98;;;0.68;;
50779;SDS011;36748;37.428;-121.972;2023-06-26T10:38:58;0.60;;;0.50;;
50779;SDS011;36748;37.428;-121.972;2023-06-26T10:41:28;2.47;;;0.60;;
50779;SDS011;36748;37.428;-121.972;2023-06-26T10:46:28;1.30;;;0.50;;
50779;SDS011;36748;37.428;-121.972;2023-06-26T10:49:00;1.60;;;0.50;;
50779;SDS011;36748;37.428;-121.972;2023-06-26T10:51:27;0.50;;;0.47;;
50779;SDS011;36748;37.428;-121.972;2023-06-26T10:53:54;1.48;;;0.65;;
50779;SDS011;36748;37.428;-121.972;2023-06-26T10:56:23;0.80;;;0.60;;
50779;SDS011;36748;37.428;-121.972;2023-06-26T10:59:14;1.30;;;0.63;;
50779;SDS011;36748;37.428;-121.972;2023-06-26T11:01:57;0.40;;;0.40;;
50779;SDS011;36748;37.428;-121.972;2023-06-26T11:09:56;0.98;;;0.50;;
50779;SDS011;36748;37.428;-121.972;2023-06-26T11:15:10;0.90;;;0.60;;
50779;SDS011;36748;37.428;-121.972;2023-06-26T11:17:40;0.88;;;0.43;;
50779;SDS011;36748;37.428;-121.972;2023-06-26T11:20:08;0.60;;;0.40;;
50779;SDS011;36748;37.428;-121.972;2023-06-26T11:22:36;1.35;;;0.50;;
50779;SDS011;36748;37.428;-121.972;2023-06-26T11:25:04;1.55;;;0.63;;
50779;SDS011;36748;37.428;-121.972;2023-06-26T11:27:38;1.77;;;0.60;;
50779;SDS011;36748;37.428;-121.972;2023-06-26T11:30:08;1.05;;;0.63;;
50779;SDS011;36748;37.428;-121.972;2023-06-26T11:32:37;2.22;;;0.75;;
50779;SDS011;36748;37.428;-121.972;2023-06-26T11:35:03;1.60;;;0.80;;
50779;SDS011;36748;37.428;-121.972;2023-06-26T11:37:31;1.00;;;0.50;;
50779;SDS011;36748;37.428;-121.972;2023-06-26T11:39:57;0.90;;;0.70;;
50779;SDS011;36748;37.428;-121.972;2023-06-26T11:42:23;0.93;;;0.63;;
50779;SDS011;36748;37.428;-121.972;2023-06-26T11:44:50;1.17;;;0.50;;
50779;SDS011;36748;37.428;-121.972;2023-06-26T11:47:17;1.48;;;0.70;;
50779;SDS011;36748;37.428;-121.972;2023-06-26T11:49:45;0.60;;;0.50;;
50779;SDS011;36748;37.428;-121.972;2023-06-26T11:52:13;0.88;;;0.60;;
50779;SDS011;36748;37.428;-121.972;2023-06-26T11:54:40;0.85;;;0.60;;
50779;SDS011;36748;37.428;-121.972;2023-06-26T11:57:08;2.03;;;0.80;;
50779;SDS011;36748;37.428;-121.972;2023-06-26T11:59:39;1.05;;;0.73;;
50779;SDS011;36748;37.428;-121.972;2023-06-26T12:02:15;1.10;;;0.63;;
50779;SDS011;36748;37.428;-121.972;2023-06-26T12:04:42;1.48;;;0.70;;
50779;SDS011;36748;37.428;-121.972;2023-06-26T12:07:09;1.75;;;0.88;;
50779;SDS011;36748;37.428;-121.972;2023-06-26T12:09:40;1.85;;;0.80;;
50779;SDS011;36748;37.428;-121.972;2023-06-26T12:12:09;1.00;;;0.60;;
50779;SDS011;36748;37.428;-121.972;2023-06-26T12:14:36;1.52;;;0.70;;
50779;SDS011;36748;37.428;-121.972;2023-06-26T12:17:12;2.15;;;0.70;;
50779;SDS011;36748;37.428;-121.972;2023-06-26T12:19:42;3.05;;;0.90;;
50779;SDS011;36748;37.428;-121.972;2023-06-26T12:22:09;2.15;;;0.90;;
50779;SDS011;36748;37.428;-121.972;2023-06-26T12:24:39;1.98;;;0.70;;
50779;SDS011;36748;37.428;-121.972;2023-06-26T12:27:08;1.80;;;0.68;;
50779;SDS011;36748;37.428;-121.972;2023-06-26T12:29:36;1.55;;;0.77;;
50779;SDS011;36748;37.428;-121.972;2023-06-26T12:32:03;1.08;;;0.70;;
50779;SDS011;36748;37.428;-121.972;2023-06-26T12:34:33;4.00;;;0.90;;
50779;SDS011;36748;37.428;-121.972;2023-06-26T12:37:02;4.50;;;0.93;;
50779;SDS011;36748;37.428;-121.972;2023-06-26T12:39:44;3.53;;;0.90;;
50779;SDS011;36748;37.428;-121.972;2023-06-26T12:42:15;2.92;;;0.98;;
50779;SDS011;36748;37.428;-121.972;2023-06-26T12:44:46;4.13;;;0.70;;
50779;SDS011;36748;37.428;-121.972;2023-06-26T12:47:13;1.83;;;0.90;;
50779;SDS011;36748;37.428;-121.972;2023-06-26T12:49:41;1.70;;;0.70;;
50779;SDS011;36748;37.428;-121.972;2023-06-26T12:52:10;1.02;;;0.70;;
50779;SDS011;36748;37.428;-121.972;2023-06-26T12:54:38;4.75;;;0.57;;
50779;SDS011;36748;37.428;-121.972;2023-06-26T12:57:06;1.30;;;0.70;;
50779;SDS011;36748;37.428;-121.972;2023-06-26T12:59:34;2.42;;;0.65;;
50779;SDS011;36748;37.428;-121.972;2023-06-26T13:02:03;2.65;;;0.80;;
50779;SDS011;36748;37.428;-121.972;2023-06-26T13:04:30;4.88;;;0.80;;
50779;SDS011;36748;37.428;-121.972;2023-06-26T13:06:56;2.10;;;0.70;;
50779;SDS011;36748;37.428;-121.972;2023-06-26T13:09:23;2.55;;;0.80;;
50779;SDS011;36748;37.428;-121.972;2023-06-26T13:11:53;1.27;;;0.70;;
50779;SDS011;36748;37.428;-121.972;2023-06-26T13:14:20;2.97;;;0.70;;
50779;SDS011;36748;37.428;-121.972;2023-06-26T13:16:46;3.88;;;0.90;;
50779;SDS011;36748;37.428;-121.972;2023-06-26T13:19:12;1.88;;;0.95;;
50779;SDS011;36748;37.428;-121.972;2023-06-26T13:21:39;1.90;;;0.88;;
50779;SDS011;36748;37.428;-121.972;2023-06-26T13:24:05;1.13;;;0.80;;
50779;SDS011;36748;37.428;-121.972;2023-06-26T13:26:31;0.75;;;0.50;;
50779;SDS011;36748;37.428;-121.972;2023-06-26T13:28:58;2.28;;;0.73;;
50779;SDS011;36748;37.428;-121.972;2023-06-26T13:31:24;1.58;;;0.70;;
50779;SDS011;36748;37.428;-121.972;2023-06-26T13:33:50;2.92;;;1.02;;
50779;SDS011;36748;37.428;-121.972;2023-06-26T13:36:20;3.40;;;0.80;;
50779;SDS011;36748;37.428;-121.972;2023-06-26T13:38:46;2.10;;;0.80;;
50779;SDS011;36748;37.428;-121.972;2023-06-26T13:41:15;2.03;;;0.80;;
50779;SDS011;36748;37.428;-121.972;2023-06-26T13:43:41;1.67;;;0.75;;
50779;SDS011;36748;37.428;-121.972;2023-06-26T13:46:07;1.38;;;0.85;;
50779;SDS011;36748;37.428;-121.972;2023-06-26T13:48:34;2.40;;;1.00;;
50779;SDS011;36748;37.428;-121.972;2023-06-26T13:51:00;3.38;;;0.70;;
50779;SDS011;36748;37.428;-121.972;2023-06-26T13:53:26;1.85;;;1.00;;
50779;SDS011;36748;37.428;-121.972;2023-06-26T13:55:52;2.03;;;0.73;;
50779;SDS011;36748;37.428;-121.972;2023-06-26T13:58:18;2.20;;;1.10;;
50779;SDS011;36748;37.428;-121.972;2023-06-26T14:00:47;3.13;;;0.70;;
50779;SDS011;36748;37.428;-121.972;2023-06-26T14:03:14;2.13;;;0.90;;
50779;SDS011;36748;37.428;-121.972;2023-06-26T14:05:40;1.40;;;0.80;;
50779;SDS011;36748;37.428;-121.972;2023-06-26T14:08:07;1.63;;;0.50;;
50779;SDS011;36748;37.428;-121.972;2023-06-26T14:10:34;1.98;;;0.70;;
50779;SDS011;36748;37.428;-121.972;2023-06-26T14:13:01;2.05;;;0.82;;
50779;SDS011;36748;37.428;-121.972;2023-06-26T14:15:28;3.15;;;1.08;;
50779;SDS011;36748;37.428;-121.972;2023-06-26T14:17:55;1.50;;;1.00;;
50779;SDS011;36748;37.428;-121.972;2023-06-26T14:20:21;1.83;;;0.80;;
50779;SDS011;36748;37.428;-121.972;2023-06-26T14:22:48;1.67;;;0.75;;
50779;SDS011;36748;37.428;-121.972;2023-06-26T14:25:15;1.60;;;0.70;;
50779;SDS011;36748;37.428;-121.972;2023-06-26T14:27:42;3.47;;;1.20;;